createdAt,value
2017-07-28T00:01:02.027Z,27.30
2017-07-28T00:03:29.588Z,18.03
2017-07-28T00:05:58.053Z,18.20
2017-07-28T00:08:25.622Z,19.30
2017-07-28T00:10:53.208Z,17.13
2017-07-28T00:13:21.545Z,20.10
2017-07-28T00:15:49.114Z,19.43
2017-07-28T00:18:16.697Z,21.90
2017-07-28T00:20:44.253Z,23.40
2017-07-28T00:23:11.882Z,18.90
2017-07-28T00:25:39.546Z,23.13
2017-07-28T00:28:07.102Z,15.67
2017-07-28T00:30:34.703Z,19.90
2017-07-28T00:33:02.294Z,27.33
2017-07-28T00:35:30.662Z,21.03
2017-07-28T00:37:59.026Z,17.93
2017-07-28T00:40:26.578Z,16.30
2017-07-28T00:42:54.273Z,20.73
2017-07-28T00:45:21.870Z,13.60
2017-07-28T00:47:49.434Z,17.90
2017-07-28T00:50:17.022Z,17.77
2017-07-28T00:52:44.589Z,15.67
2017-07-28T00:55:12.154Z,18.17
2017-07-28T00:57:39.863Z,26.13
2017-07-28T01:00:07.430Z,21.83
2017-07-28T01:02:34.998Z,21.17
2017-07-28T01:05:02.591Z,22.90
2017-07-28T01:07:30.154Z,20.00
2017-07-28T01:09:57.750Z,27.50
2017-07-28T01:12:25.338Z,22.20
2017-07-28T01:14:52.966Z,33.43
2017-07-28T01:17:20.557Z,27.50
2017-07-28T01:19:48.149Z,24.43
2017-07-28T01:22:15.741Z,25.30
2017-07-28T01:24:44.087Z,24.60
2017-07-28T01:27:11.687Z,26.77
2017-07-28T01:29:40.022Z,24.40
2017-07-28T01:32:07.573Z,20.40
2017-07-28T01:34:35.173Z,19.40
2017-07-28T01:37:03.557Z,25.70
2017-07-28T01:39:31.137Z,26.47
2017-07-28T01:41:58.719Z,23.77
2017-07-28T01:44:26.287Z,24.10
2017-07-28T01:46:54.835Z,23.07
2017-07-28T01:49:23.191Z,26.37
2017-07-28T01:51:50.782Z,20.07
2017-07-28T01:54:18.354Z,27.13
2017-07-28T01:56:46.034Z,25.77
2017-07-28T01:59:13.623Z,27.13
2017-07-28T02:01:41.178Z,16.23
2017-07-28T02:04:08.757Z,28.40
2017-07-28T02:06:36.331Z,25.83
2017-07-28T02:09:04.674Z,18.20
2017-07-28T02:11:32.251Z,22.20
2017-07-28T02:13:59.813Z,24.37
2017-07-28T02:16:27.398Z,21.73
2017-07-28T02:18:55.754Z,22.27
2017-07-28T02:21:23.345Z,13.50
2017-07-28T02:23:50.939Z,21.33
2017-07-28T02:26:18.513Z,20.00
2017-07-28T02:28:46.091Z,13.10
2017-07-28T02:31:13.646Z,20.00
2017-07-28T02:33:41.234Z,16.83
2017-07-28T02:36:08.806Z,20.53
2017-07-28T02:38:37.150Z,20.40
2017-07-28T02:41:04.718Z,14.80
2017-07-28T02:43:32.292Z,16.23
2017-07-28T02:45:59.892Z,18.00
2017-07-28T02:48:27.526Z,15.57
2017-07-28T02:50:55.876Z,15.33
2017-07-28T02:53:23.442Z,11.87
2017-07-28T02:55:51.014Z,19.30
2017-07-28T02:58:18.586Z,18.83
2017-07-28T03:00:46.957Z,13.37
2017-07-28T03:03:14.517Z,13.07
2017-07-28T03:05:42.083Z,13.03
2017-07-28T03:08:09.669Z,21.70
2017-07-28T03:10:37.246Z,10.23
2017-07-28T03:13:04.826Z,10.20
2017-07-28T03:15:32.398Z,17.47
2017-07-28T03:17:59.961Z,15.87
2017-07-28T03:20:27.550Z,9.00
2017-07-28T03:22:55.999Z,15.13
2017-07-28T03:25:23.594Z,12.77
2017-07-28T03:27:51.957Z,17.40
2017-07-28T03:30:19.552Z,19.13
2017-07-28T03:32:47.106Z,12.17
2017-07-28T03:35:15.450Z,16.07
2017-07-28T03:37:43.050Z,9.60
2017-07-28T03:40:11.394Z,13.43
2017-07-28T03:42:38.978Z,11.53
2017-07-28T03:45:07.335Z,9.77
2017-07-28T03:47:35.927Z,10.50
2017-07-28T03:50:03.513Z,11.20
2017-07-28T03:52:31.849Z,12.60
2017-07-28T03:54:59.770Z,17.73
2017-07-28T03:57:27.368Z,13.37
2017-07-28T03:59:54.963Z,13.03
2017-07-28T04:02:22.555Z,14.67
2017-07-28T04:04:50.152Z,16.47
2017-07-28T04:07:17.729Z,14.47
2017-07-28T04:09:45.320Z,9.90
2017-07-28T04:12:13.685Z,12.00
2017-07-28T04:14:41.309Z,11.83
2017-07-28T04:17:08.899Z,16.67
2017-07-28T04:19:36.485Z,13.67
2017-07-28T04:22:04.841Z,10.60
2017-07-28T04:24:32.448Z,9.93
2017-07-28T04:27:00.029Z,13.07
2017-07-28T04:29:27.612Z,16.13
2017-07-28T04:31:55.187Z,13.43
2017-07-28T04:34:22.875Z,12.00
2017-07-28T04:36:51.234Z,14.60
2017-07-28T04:39:18.835Z,19.27
2017-07-28T04:41:48.291Z,12.33
2017-07-28T04:44:15.862Z,8.53
2017-07-28T04:46:43.495Z,16.93
2017-07-28T04:49:11.078Z,12.93
2017-07-28T04:51:38.648Z,12.90
2017-07-28T04:54:06.233Z,14.13
2017-07-28T04:56:34.674Z,9.20
2017-07-28T04:59:03.064Z,13.10
2017-07-28T05:01:30.954Z,13.60
2017-07-28T05:03:59.289Z,11.10
2017-07-28T05:06:26.877Z,11.40
2017-07-28T05:08:54.477Z,22.10
2017-07-28T05:11:22.057Z,12.07
2017-07-28T05:13:49.626Z,10.37
2017-07-28T05:16:17.210Z,11.90
2017-07-28T05:18:44.851Z,9.93
2017-07-28T05:21:12.615Z,12.57
2017-07-28T05:23:40.182Z,12.27
2017-07-28T05:26:07.810Z,14.10
2017-07-28T05:28:35.360Z,11.13
2017-07-28T05:31:02.993Z,9.17
2017-07-28T05:33:30.570Z,15.33
2017-07-28T05:35:58.946Z,21.40
2017-07-28T05:38:26.552Z,15.80
2017-07-28T05:40:54.138Z,17.73
2017-07-28T05:43:22.013Z,12.53
2017-07-28T05:45:49.569Z,11.80
2017-07-28T05:48:17.287Z,9.20
2017-07-28T05:50:45.093Z,14.70
2017-07-28T05:53:12.770Z,21.83
2017-07-28T05:55:40.342Z,11.90
2017-07-28T05:58:07.982Z,16.33
2017-07-28T06:00:35.579Z,11.40
2017-07-28T06:03:03.918Z,20.40
2017-07-28T06:05:31.506Z,16.33
2017-07-28T06:07:59.093Z,11.00
2017-07-28T06:10:27.461Z,15.07
2017-07-28T06:12:55.843Z,10.80
2017-07-28T06:15:24.194Z,13.00
2017-07-28T06:17:51.778Z,10.93
2017-07-28T06:20:19.418Z,10.93
2017-07-28T06:22:46.950Z,8.17
2017-07-28T06:25:14.541Z,12.33
2017-07-28T06:27:42.226Z,11.07
2017-07-28T06:30:10.566Z,18.47
2017-07-28T06:32:38.155Z,10.87
2017-07-28T06:35:05.720Z,15.90
2017-07-28T06:37:33.338Z,20.63
2017-07-28T06:40:00.904Z,9.97
2017-07-28T06:42:28.504Z,11.10
2017-07-28T06:44:56.077Z,16.43
2017-07-28T06:47:23.702Z,13.43
2017-07-28T06:49:51.276Z,11.87
2017-07-28T06:52:18.937Z,13.90
2017-07-28T06:54:46.552Z,11.20
2017-07-28T06:57:15.075Z,10.50
2017-07-28T06:59:42.671Z,13.70
2017-07-28T07:02:10.233Z,9.43
2017-07-28T07:04:38.586Z,13.60
2017-07-28T07:07:06.152Z,9.77
2017-07-28T07:09:33.714Z,24.83
2017-07-28T07:12:01.293Z,8.87
2017-07-28T07:14:28.882Z,15.60
2017-07-28T07:16:56.467Z,14.17
2017-07-28T07:19:24.023Z,16.00
2017-07-28T07:21:51.642Z,13.23
2017-07-28T07:24:19.236Z,17.70
2017-07-28T07:26:46.790Z,11.03
2017-07-28T07:29:14.382Z,15.93
2017-07-28T07:31:41.942Z,11.10
2017-07-28T07:34:09.502Z,13.70
2017-07-28T07:36:37.134Z,11.00
2017-07-28T07:39:04.712Z,13.50
2017-07-28T07:41:32.295Z,13.47
2017-07-28T07:43:59.863Z,12.60
2017-07-28T07:46:27.489Z,11.67
2017-07-28T07:48:55.831Z,10.33
2017-07-28T07:51:23.410Z,13.00
2017-07-28T07:53:50.992Z,9.87
2017-07-28T07:56:18.579Z,17.07
2017-07-28T07:58:46.146Z,7.73
2017-07-28T08:01:13.710Z,12.60
2017-07-28T08:03:41.309Z,11.87
2017-07-28T08:06:08.880Z,16.33
2017-07-28T08:08:36.470Z,14.47
2017-07-28T08:11:04.081Z,9.30
2017-07-28T08:13:31.652Z,15.73
2017-07-28T08:15:59.234Z,18.73
2017-07-28T08:18:26.813Z,16.37
2017-07-28T08:20:54.391Z,14.73
2017-07-28T08:23:22.026Z,9.20
2017-07-28T08:25:49.628Z,10.33
2017-07-28T08:28:17.201Z,13.43
2017-07-28T08:30:44.801Z,16.20
2017-07-28T08:33:12.383Z,14.73
2017-07-28T08:35:39.974Z,9.40
2017-07-28T08:38:08.344Z,7.27
2017-07-28T08:40:35.946Z,9.17
2017-07-28T08:43:03.531Z,9.83
2017-07-28T08:45:31.111Z,11.60
2017-07-28T08:47:58.695Z,11.63
2017-07-28T08:50:26.281Z,11.77
2017-07-28T08:52:53.870Z,9.93
2017-07-28T08:55:21.434Z,13.87
2017-07-28T08:57:49.043Z,12.63
2017-07-28T09:00:16.618Z,12.10
2017-07-28T09:02:44.992Z,13.87
2017-07-28T09:05:12.561Z,18.60
2017-07-28T09:07:40.903Z,6.80
2017-07-28T09:10:08.493Z,14.50
2017-07-28T09:12:36.065Z,9.47
2017-07-28T09:15:03.644Z,17.43
2017-07-28T09:17:31.242Z,13.83
2017-07-28T09:19:58.833Z,9.87
2017-07-28T09:22:26.382Z,5.63
2017-07-28T09:24:53.945Z,11.57
2017-07-28T09:27:21.519Z,10.50
2017-07-28T09:29:49.107Z,10.03
2017-07-28T09:32:16.668Z,14.67
2017-07-28T09:34:44.249Z,16.57
2017-07-28T09:37:11.818Z,33.70
2017-07-28T09:39:39.423Z,11.80
2017-07-28T09:42:07.011Z,8.80
2017-07-28T09:44:34.618Z,7.73
2017-07-28T09:47:02.285Z,6.87
2017-07-28T09:49:29.860Z,8.20
2017-07-28T09:51:58.223Z,8.60
2017-07-28T09:54:25.793Z,15.40
2017-07-28T09:56:53.366Z,8.20
2017-07-28T09:59:21.685Z,13.97
2017-07-28T10:01:49.250Z,4.43
2017-07-28T10:04:16.830Z,11.27
2017-07-28T10:06:44.402Z,6.70
2017-07-28T10:09:11.968Z,10.20
2017-07-28T10:11:39.574Z,9.50
2017-07-28T10:14:07.141Z,10.00
2017-07-28T10:16:34.745Z,12.07
2017-07-28T10:19:02.314Z,6.13
2017-07-28T10:21:29.938Z,10.43
2017-07-28T10:23:57.492Z,9.70
2017-07-28T10:26:25.078Z,9.80
2017-07-28T10:28:52.672Z,6.00
2017-07-28T10:31:20.272Z,4.60
2017-07-28T10:33:47.886Z,5.30
2017-07-28T10:36:15.462Z,9.70
2017-07-28T10:38:43.714Z,5.40
2017-07-28T10:41:11.277Z,9.53
2017-07-28T10:43:38.855Z,6.40
2017-07-28T10:46:06.423Z,4.80
2017-07-28T10:48:34.005Z,5.80
2017-07-28T10:51:01.581Z,7.67
2017-07-28T10:53:29.147Z,8.07
2017-07-28T10:55:56.732Z,7.83
2017-07-28T10:58:24.303Z,4.97
2017-07-28T11:00:51.894Z,7.53
2017-07-28T11:03:20.375Z,12.83
2017-07-28T11:05:47.948Z,6.07
2017-07-28T11:08:15.514Z,7.50
2017-07-28T11:10:43.109Z,7.53
2017-07-28T11:13:10.697Z,6.33
2017-07-28T11:15:38.375Z,10.20
2017-07-28T11:18:05.965Z,9.07
2017-07-28T11:20:33.546Z,7.60
2017-07-28T11:23:01.102Z,8.53
2017-07-28T11:25:28.677Z,7.37
2017-07-28T11:27:56.366Z,9.93
2017-07-28T11:30:23.925Z,5.17
2017-07-28T11:32:51.524Z,13.80
2017-07-28T11:35:19.883Z,8.70
2017-07-28T11:37:48.207Z,7.50
2017-07-28T11:40:15.769Z,8.20
2017-07-28T11:42:43.417Z,8.63
2017-07-28T11:45:10.988Z,9.20
2017-07-28T11:47:38.558Z,6.43
2017-07-28T11:50:06.154Z,12.80
2017-07-28T11:52:33.742Z,6.50
2017-07-28T11:55:02.077Z,9.60
2017-07-28T11:57:29.658Z,5.87
2017-07-28T11:59:57.221Z,7.90
2017-07-28T12:02:24.785Z,8.80
2017-07-28T12:04:52.356Z,6.93
2017-07-28T12:07:20.094Z,7.00
2017-07-28T12:09:47.669Z,8.03
2017-07-28T12:12:15.236Z,7.00
2017-07-28T12:14:42.858Z,6.90
2017-07-28T12:17:10.429Z,9.23
2017-07-28T12:19:38.008Z,9.03
2017-07-28T12:22:05.610Z,8.83
2017-07-28T12:24:33.448Z,6.50
2017-07-28T12:27:01.070Z,4.53
2017-07-28T12:29:29.499Z,8.00
2017-07-28T12:31:57.075Z,7.27
2017-07-28T12:34:24.658Z,5.80
2017-07-28T12:36:52.260Z,6.53
2017-07-28T12:39:19.838Z,5.97
2017-07-28T12:41:47.437Z,5.00
2017-07-28T12:44:15.039Z,5.03
2017-07-28T12:46:42.625Z,6.00
2017-07-28T12:49:10.186Z,6.77
2017-07-28T12:51:37.774Z,5.13
2017-07-28T12:54:05.367Z,9.73
2017-07-28T12:56:33.045Z,8.60
2017-07-28T12:59:00.618Z,9.27
2017-07-28T13:01:28.251Z,9.83
2017-07-28T13:03:56.009Z,5.97
2017-07-28T13:06:24.510Z,7.67
2017-07-28T13:08:52.121Z,10.23
2017-07-28T13:11:20.459Z,9.07
2017-07-28T13:13:48.031Z,4.53
2017-07-28T13:16:15.614Z,7.17
2017-07-28T13:18:43.231Z,6.40
2017-07-28T13:21:10.780Z,7.03
2017-07-28T13:23:38.347Z,9.73
2017-07-28T13:26:11.623Z,7.30
2017-07-28T13:28:39.197Z,4.50
2017-07-28T13:31:06.873Z,8.07
2017-07-28T13:33:34.493Z,8.03
2017-07-28T13:36:02.085Z,11.13
2017-07-28T13:38:29.665Z,6.03
2017-07-28T13:40:57.254Z,3.93
2017-07-28T13:43:25.567Z,7.83
2017-07-28T13:45:58.708Z,9.40
2017-07-28T13:48:26.281Z,9.63
2017-07-28T13:50:54.617Z,5.50
2017-07-28T13:53:22.226Z,9.23
2017-07-28T13:55:53.896Z,4.23
2017-07-28T13:58:22.309Z,6.80
2017-07-28T14:00:52.311Z,4.20
2017-07-28T14:03:19.936Z,11.63
2017-07-28T14:05:47.489Z,6.60
2017-07-28T14:08:15.050Z,10.30
2017-07-28T14:10:42.676Z,7.47
2017-07-28T14:13:10.266Z,5.47
2017-07-28T14:15:37.855Z,10.63
2017-07-28T14:18:06.322Z,8.13
2017-07-28T14:20:34.690Z,10.00
2017-07-28T14:23:02.267Z,7.13
2017-07-28T14:25:30.609Z,8.17
2017-07-28T14:27:58.303Z,12.43
2017-07-28T14:30:27.052Z,4.20
2017-07-28T14:32:54.625Z,5.87
2017-07-28T14:35:22.192Z,9.73
2017-07-28T14:37:49.785Z,6.67
2017-07-28T14:40:18.176Z,6.97
2017-07-28T14:42:45.830Z,7.07
2017-07-28T14:45:15.407Z,9.90
2017-07-28T14:47:42.971Z,6.27
2017-07-28T14:50:10.553Z,8.87
2017-07-28T14:52:38.903Z,5.97
2017-07-28T14:55:06.507Z,7.73
2017-07-28T14:57:34.065Z,11.10
2017-07-28T15:00:02.410Z,5.77
2017-07-28T15:02:29.975Z,6.17
2017-07-28T15:04:57.575Z,10.13
2017-07-28T15:07:25.891Z,7.63
2017-07-28T15:09:53.462Z,6.07
2017-07-28T15:12:21.043Z,4.73
2017-07-28T15:14:48.638Z,9.77
2017-07-28T15:17:16.957Z,8.80
2017-07-28T15:19:44.541Z,5.03
2017-07-28T15:22:12.149Z,8.00
2017-07-28T15:24:39.736Z,19.33
2017-07-28T15:27:07.313Z,12.87
2017-07-28T15:29:34.916Z,4.90
2017-07-28T15:32:03.253Z,9.80
2017-07-28T15:34:30.955Z,3.63
2017-07-28T15:36:59.322Z,7.23
2017-07-28T15:39:26.908Z,4.77
2017-07-28T15:41:54.461Z,7.90
2017-07-28T15:44:22.046Z,5.33
2017-07-28T15:46:49.622Z,6.27
2017-07-28T15:49:17.195Z,7.57
2017-07-28T15:51:44.796Z,7.60
2017-07-28T15:54:13.132Z,9.03
2017-07-28T15:56:40.726Z,4.90
2017-07-28T15:59:08.330Z,7.13
2017-07-28T16:01:36.095Z,5.47
2017-07-28T16:04:04.600Z,7.73
2017-07-28T16:06:32.160Z,8.80
2017-07-28T16:08:59.791Z,6.00
2017-07-28T16:11:27.385Z,8.43
2017-07-28T16:13:55.114Z,9.67
2017-07-28T16:16:22.763Z,6.27
2017-07-28T16:18:51.102Z,9.23
2017-07-28T16:21:18.690Z,6.87
2017-07-28T16:23:47.038Z,7.30
2017-07-28T16:26:14.589Z,6.90
2017-07-28T16:28:42.165Z,7.70
2017-07-28T16:31:09.738Z,12.10
2017-07-28T16:33:37.330Z,7.43
2017-07-28T16:36:05.653Z,5.57
2017-07-28T16:38:33.222Z,8.57
2017-07-28T16:41:00.819Z,8.30
2017-07-28T16:43:29.173Z,8.60
2017-07-28T16:45:56.758Z,7.47
2017-07-28T16:48:25.216Z,11.73
2017-07-28T16:50:52.803Z,8.47
2017-07-28T16:53:21.158Z,6.67
2017-07-28T16:55:48.723Z,7.33
2017-07-28T16:58:16.266Z,9.80
2017-07-28T17:00:43.846Z,9.10
2017-07-28T17:03:11.422Z,6.77
2017-07-28T17:05:39.758Z,8.80
2017-07-28T17:08:07.355Z,8.63
2017-07-28T17:10:38.506Z,6.70
2017-07-28T17:13:06.366Z,8.27
2017-07-28T17:15:33.929Z,4.70
2017-07-28T17:18:02.262Z,3.77
2017-07-28T17:20:29.843Z,3.90
2017-07-28T17:22:57.418Z,5.60
2017-07-28T17:25:25.008Z,6.40
2017-07-28T17:27:53.361Z,9.97
2017-07-28T17:30:20.914Z,6.97
2017-07-28T17:32:48.542Z,4.87
2017-07-28T17:35:16.136Z,4.80
2017-07-28T17:37:43.723Z,6.67
2017-07-28T17:40:11.347Z,4.70
2017-07-28T17:42:38.919Z,8.90
2017-07-28T17:45:06.493Z,8.60
2017-07-28T17:47:34.054Z,7.03
2017-07-28T17:50:01.626Z,7.70
2017-07-28T17:52:29.214Z,4.80
2017-07-28T17:54:57.575Z,8.63
2017-07-28T17:57:25.175Z,5.70
2017-07-28T17:59:52.745Z,7.23
2017-07-28T18:02:20.355Z,10.73
2017-07-28T18:04:47.994Z,7.30
2017-07-28T18:07:16.506Z,4.50
2017-07-28T18:09:44.862Z,5.10
2017-07-28T18:12:12.421Z,7.30
2017-07-28T18:14:39.985Z,6.87
2017-07-28T18:17:07.738Z,4.30
2017-07-28T18:19:35.340Z,5.33
2017-07-28T18:22:03.696Z,5.53
2017-07-28T18:24:31.265Z,5.77
2017-07-28T18:26:59.658Z,8.90
2017-07-28T18:29:27.209Z,3.97
2017-07-28T18:31:54.777Z,7.80
2017-07-28T18:34:22.421Z,7.00
2017-07-28T18:36:49.990Z,8.57
2017-07-28T18:39:18.446Z,5.80
2017-07-28T18:41:46.030Z,6.97
2017-07-28T18:44:13.623Z,7.67
2017-07-28T18:46:41.196Z,8.80
2017-07-28T18:49:08.789Z,7.80
2017-07-28T18:51:36.353Z,7.73
2017-07-28T18:54:04.798Z,7.87
2017-07-28T18:56:32.597Z,5.17
2017-07-28T18:59:00.177Z,3.27
2017-07-28T19:01:27.762Z,6.40
2017-07-28T19:03:55.353Z,7.33
2017-07-28T19:06:22.919Z,9.47
2017-07-28T19:08:50.593Z,7.00
2017-07-28T19:11:18.313Z,4.90
2017-07-28T19:13:45.987Z,5.43
2017-07-28T19:16:13.610Z,4.80
2017-07-28T19:18:41.184Z,8.30
2017-07-28T19:21:09.544Z,5.27
2017-07-28T19:23:37.156Z,7.03
2017-07-28T19:26:04.751Z,5.67
2017-07-28T19:28:32.346Z,7.40
2017-07-28T19:30:59.908Z,9.10
2017-07-28T19:33:27.507Z,9.30
2017-07-28T19:35:55.092Z,6.50
2017-07-28T19:38:23.614Z,5.87
2017-07-28T19:40:51.226Z,5.30
2017-07-28T19:43:18.804Z,7.70
2017-07-28T19:45:46.364Z,8.27
2017-07-28T19:48:13.970Z,6.90
2017-07-28T19:50:41.598Z,7.30
2017-07-28T19:53:09.189Z,7.00
2017-07-28T19:55:37.551Z,5.33
2017-07-28T19:58:05.136Z,6.60
2017-07-28T20:00:32.831Z,6.80
2017-07-28T20:03:00.394Z,7.23
2017-07-28T20:05:28.008Z,9.93
2017-07-28T20:07:56.352Z,16.37
2017-07-28T20:10:23.932Z,8.17
2017-07-28T20:12:51.505Z,5.57
2017-07-28T20:15:19.927Z,7.00
2017-07-28T20:17:47.645Z,6.67
2017-07-28T20:20:15.245Z,8.90
2017-07-28T20:22:42.810Z,10.73
2017-07-28T20:25:10.402Z,5.13
2017-07-28T20:27:37.991Z,7.70
2017-07-28T20:30:06.328Z,6.83
2017-07-28T20:32:33.912Z,7.00
2017-07-28T20:35:01.506Z,7.53
2017-07-28T20:37:29.076Z,9.37
2017-07-28T20:39:56.674Z,9.13
2017-07-28T20:42:24.268Z,13.20
2017-07-28T20:44:51.846Z,8.47
2017-07-28T20:47:19.449Z,7.47
2017-07-28T20:49:47.058Z,4.90
2017-07-28T20:52:15.402Z,7.20
2017-07-28T20:54:42.962Z,7.00
2017-07-28T20:57:10.569Z,6.40
2017-07-28T20:59:38.172Z,10.30
2017-07-28T21:02:05.747Z,6.07
2017-07-28T21:04:33.317Z,8.80
2017-07-28T21:07:00.882Z,8.67
2017-07-28T21:09:28.451Z,8.60
2017-07-28T21:11:55.971Z,10.13
2017-07-28T21:14:23.646Z,8.47
2017-07-28T21:16:51.220Z,7.40
2017-07-28T21:19:18.823Z,11.93
2017-07-28T21:21:47.170Z,4.80
2017-07-28T21:24:14.771Z,6.70
2017-07-28T21:26:42.350Z,8.17
2017-07-28T21:29:09.913Z,10.63
2017-07-28T21:31:37.527Z,14.23
2017-07-28T21:34:05.923Z,5.23
2017-07-28T21:36:34.249Z,8.50
2017-07-28T21:39:01.838Z,10.70
2017-07-28T21:41:29.401Z,8.77
2017-07-28T21:43:57.042Z,8.00
2017-07-28T21:46:24.624Z,10.83
2017-07-28T21:48:52.182Z,7.70
2017-07-28T21:51:19.803Z,5.70
2017-07-28T21:53:47.378Z,14.97
2017-07-28T21:56:14.983Z,8.60
2017-07-28T21:58:43.319Z,8.70
2017-07-28T22:01:10.888Z,11.60
2017-07-28T22:03:38.511Z,12.40
2017-07-28T22:06:06.084Z,7.47
2017-07-28T22:08:33.687Z,11.77
2017-07-28T22:11:01.244Z,9.90
2017-07-28T22:13:28.814Z,10.37
2017-07-28T22:15:56.407Z,12.07
2017-07-28T22:18:23.982Z,12.57
2017-07-28T22:20:51.560Z,9.13
2017-07-28T22:23:19.174Z,11.87
2017-07-28T22:25:47.518Z,9.00
2017-07-28T22:28:15.106Z,12.97
2017-07-28T22:30:42.686Z,11.43
2017-07-28T22:33:11.044Z,12.10
2017-07-28T22:35:38.605Z,9.20
2017-07-28T22:38:06.974Z,12.63
2017-07-28T22:40:34.533Z,8.00
2017-07-28T22:43:02.110Z,11.37
2017-07-28T22:45:30.461Z,10.27
2017-07-28T22:47:59.726Z,9.37
2017-07-28T22:50:27.312Z,10.23
2017-07-28T22:52:54.902Z,9.83
2017-07-28T22:55:22.473Z,8.43
2017-07-28T22:57:50.806Z,14.40
2017-07-28T23:00:18.386Z,9.50
2017-07-28T23:02:45.961Z,11.83
2017-07-28T23:05:13.554Z,10.40
2017-07-28T23:07:41.164Z,14.17
2017-07-28T23:10:08.734Z,8.43
2017-07-28T23:12:36.321Z,10.67
2017-07-28T23:15:04.653Z,9.10
2017-07-28T23:17:32.232Z,10.30
2017-07-28T23:19:59.810Z,8.77
2017-07-28T23:22:27.396Z,13.67
2017-07-28T23:24:55.738Z,8.27
2017-07-28T23:27:23.294Z,8.60
2017-07-28T23:29:50.890Z,10.93
2017-07-28T23:32:19.222Z,7.67
2017-07-28T23:34:46.773Z,8.50
2017-07-28T23:37:14.383Z,10.77
2017-07-28T23:39:41.941Z,7.77
2017-07-28T23:42:10.307Z,8.87
2017-07-28T23:44:37.873Z,8.90
2017-07-28T23:47:05.451Z,11.30
2017-07-28T23:49:33.840Z,7.00
2017-07-28T23:52:01.396Z,11.83
2017-07-28T23:54:29.748Z,7.37
2017-07-28T23:56:57.347Z,11.13
2017-07-28T23:59:25.713Z,5.13
